sensor_id;sensor_type;location;lat;lon;timestamp;pressure;altitude;pressure_sealevel;temperature;humidity
17450;BME280;8842;51.244;7.102;2023-02-14T00:04:17;101246.36;;;7.70;100.00
17450;BME280;8842;51.244;7.102;2023-02-14T00:14:33;101241.84;;;7.49;100.00
17450;BME280;8842;51.244;7.102;2023-02-14T00:19:55;101240.02;;;7.51;100.00
17450;BME280;8842;51.244;7.102;2023-02-14T00:30:13;101244.53;;;7.72;100.00
17450;BME280;8842;51.244;7.102;2023-02-14T00:40:29;101226.05;;;8.17;100.00
17450;BME280;8842;51.244;7.102;2023-02-14T00:50:45;101221.22;;;8.28;99.43
17450;BME280;8842;51.244;7.102;2023-02-14T01:01:01;101219.32;;;8.32;98.97
17450;BME280;8842;51.244;7.102;2023-02-14T01:16:31;101230.54;;;8.27;99.37
17450;BME280;8842;51.244;7.102;2023-02-14T01:26:46;101222.53;;;8.28;99.01
17450;BME280;8842;51.244;7.102;2023-02-14T01:37:04;101224.94;;;8.34;98.45
17450;BME280;8842;51.244;7.102;2023-02-14T01:47:22;101214.84;;;7.99;100.00
17450;BME280;8842;51.244;7.102;2023-02-14T02:02:54;101211.79;;;7.16;100.00
17450;BME280;8842;51.244;7.102;2023-02-14T02:13:16;101206.73;;;7.21;100.00
17450;BME280;8842;51.244;7.102;2023-02-14T02:24:06;101218.41;;;7.27;100.00
17450;BME280;8842;51.244;7.102;2023-02-14T02:35:02;101201.61;;;7.17;100.00
17450;BME280;8842;51.244;7.102;2023-02-14T03:01:09;101185.92;;;6.62;100.00
17450;BME280;8842;51.244;7.102;2023-02-14T03:11:25;101178.80;;;6.25;100.00
17450;BME280;8842;51.244;7.102;2023-02-14T03:22:02;101188.45;;;6.26;100.00
17450;BME280;8842;51.244;7.102;2023-02-14T03:32:26;101187.27;;;6.08;100.00
17450;BME280;8842;51.244;7.102;2023-02-14T03:42:43;101190.58;;;5.71;100.00
17450;BME280;8842;51.244;7.102;2023-02-14T03:53:04;101183.98;;;5.71;100.00
17450;BME280;8842;51.244;7.102;2023-02-14T04:03:22;101183.83;;;5.61;100.00
17450;BME280;8842;51.244;7.102;2023-02-14T04:13:40;101176.48;;;5.43;100.00
17450;BME280;8842;51.244;7.102;2023-02-14T04:23:55;101181.12;;;5.33;100.00
17450;BME280;8842;51.244;7.102;2023-02-14T04:34:11;101187.23;;;5.35;100.00
17450;BME280;8842;51.244;7.102;2023-02-14T04:44:27;101174.69;;;5.43;100.00
17450;BME280;8842;51.244;7.102;2023-02-14T04:54:42;101173.09;;;5.38;100.00
17450;BME280;8842;51.244;7.102;2023-02-14T05:04:58;101158.53;;;5.10;100.00
17450;BME280;8842;51.244;7.102;2023-02-14T05:15:14;101153.41;;;5.20;100.00
17450;BME280;8842;51.244;7.102;2023-02-14T05:25:29;101144.62;;;5.05;100.00
17450;BME280;8842;51.244;7.102;2023-02-14T05:35:44;101139.80;;;5.05;100.00
17450;BME280;8842;51.244;7.102;2023-02-14T05:51:14;101119.38;;;4.98;100.00
17450;BME280;8842;51.244;7.102;2023-02-14T06:01:29;101120.27;;;4.81;100.00
17450;BME280;8842;51.244;7.102;2023-02-14T06:11:44;101120.91;;;4.41;100.00
17450;BME280;8842;51.244;7.102;2023-02-14T06:22:00;101124.45;;;4.56;100.00
17450;BME280;8842;51.244;7.102;2023-02-14T06:32:15;101143.92;;;4.83;100.00
17450;BME280;8842;51.244;7.102;2023-02-14T06:42:30;101150.17;;;5.41;100.00
17450;BME280;8842;51.244;7.102;2023-02-14T06:52:45;101149.56;;;5.61;100.00
17450;BME280;8842;51.244;7.102;2023-02-14T07:08:13;101152.48;;;5.95;100.00
17450;BME280;8842;51.244;7.102;2023-02-14T07:18:29;101161.63;;;5.98;100.00
17450;BME280;8842;51.244;7.102;2023-02-14T07:28:45;101165.87;;;6.02;100.00
17450;BME280;8842;51.244;7.102;2023-02-14T07:39:18;101160.59;;;6.69;100.00
17450;BME280;8842;51.244;7.102;2023-02-14T07:44:22;101166.46;;;6.90;100.00
17450;BME280;8842;51.244;7.102;2023-02-14T07:54:38;101157.34;;;7.81;100.00
17450;BME280;8842;51.244;7.102;2023-02-14T08:04:53;101154.38;;;8.00;100.00
17450;BME280;8842;51.244;7.102;2023-02-14T08:15:09;101157.18;;;8.62;100.00
17450;BME280;8842;51.244;7.102;2023-02-14T08:25:43;101157.92;;;8.75;97.13
17450;BME280;8842;51.244;7.102;2023-02-14T08:30:47;101160.63;;;8.94;98.96
17450;BME280;8842;51.244;7.102;2023-02-14T08:41:04;101158.52;;;9.12;94.18
17450;BME280;8842;51.244;7.102;2023-02-14T08:51:20;101161.95;;;9.81;89.74
17450;BME280;8842;51.244;7.102;2023-02-14T09:01:36;101159.02;;;10.33;85.86
17450;BME280;8842;51.244;7.102;2023-02-14T09:11:51;101156.94;;;10.39;84.01
17450;BME280;8842;51.244;7.102;2023-02-14T09:16:55;101160.02;;;10.74;82.72
17450;BME280;8842;51.244;7.102;2023-02-14T09:21:59;101155.30;;;10.37;83.99
17450;BME280;8842;51.244;7.102;2023-02-14T09:32:17;101142.83;;;10.47;82.52
17450;BME280;8842;51.244;7.102;2023-02-14T09:48:22;101131.69;;;11.57;76.20
17450;BME280;8842;51.244;7.102;2023-02-14T09:58:43;101123.00;;;12.24;70.97
17450;BME280;8842;51.244;7.102;2023-02-14T10:09:30;101121.72;;;12.31;71.22
17450;BME280;8842;51.244;7.102;2023-02-14T10:19:48;101118.37;;;11.65;74.36
17450;BME280;8842;51.244;7.102;2023-02-14T10:35:27;101114.64;;;12.46;72.03
17450;BME280;8842;51.244;7.102;2023-02-14T10:45:57;101106.47;;;12.92;69.95
17450;BME280;8842;51.244;7.102;2023-02-14T10:56:19;101100.25;;;13.07;69.70
17450;BME280;8842;51.244;7.102;2023-02-14T11:06:35;101088.59;;;13.85;67.30
17450;BME280;8842;51.244;7.102;2023-02-14T11:16:55;101084.00;;;14.21;64.48
17450;BME280;8842;51.244;7.102;2023-02-14T11:32:32;101064.17;;;14.45;62.76
17450;BME280;8842;51.244;7.102;2023-02-14T11:42:53;101056.04;;;14.27;64.78
17450;BME280;8842;51.244;7.102;2023-02-14T11:53:27;101038.70;;;13.45;67.40
17450;BME280;8842;51.244;7.102;2023-02-14T12:03:45;101028.40;;;14.33;61.71
17450;BME280;8842;51.244;7.102;2023-02-14T12:14:02;101011.32;;;14.36;61.67
17450;BME280;8842;51.244;7.102;2023-02-14T12:24:26;100990.91;;;14.97;62.74
17450;BME280;8842;51.244;7.102;2023-02-14T12:34:46;100981.24;;;14.77;59.79
17450;BME280;8842;51.244;7.102;2023-02-14T12:45:22;100964.88;;;14.56;61.77
17450;BME280;8842;51.244;7.102;2023-02-14T12:55:53;100952.37;;;14.57;61.43
17450;BME280;8842;51.244;7.102;2023-02-14T13:06:19;100946.09;;;14.26;60.84
17450;BME280;8842;51.244;7.102;2023-02-14T13:21:55;100931.94;;;13.91;62.22
17450;BME280;8842;51.244;7.102;2023-02-14T13:32:17;100908.56;;;13.88;62.74
17450;BME280;8842;51.244;7.102;2023-02-14T13:37:23;100918.23;;;13.83;61.96
17450;BME280;8842;51.244;7.102;2023-02-14T13:48:04;100906.72;;;14.08;61.26
17450;BME280;8842;51.244;7.102;2023-02-14T13:58:24;100888.02;;;14.28;61.25
17450;BME280;8842;51.244;7.102;2023-02-14T14:14:31;100886.77;;;14.14;61.27
17450;BME280;8842;51.244;7.102;2023-02-14T14:24:58;100871.84;;;13.84;61.50
17450;BME280;8842;51.244;7.102;2023-02-14T14:35:19;100865.98;;;13.92;63.10
17450;BME280;8842;51.244;7.102;2023-02-14T14:45:37;100858.28;;;13.87;64.12
17450;BME280;8842;51.244;7.102;2023-02-14T14:55:55;100846.58;;;13.70;63.12
17450;BME280;8842;51.244;7.102;2023-02-14T15:06:16;100840.77;;;13.51;64.37
17450;BME280;8842;51.244;7.102;2023-02-14T15:16:39;100832.14;;;13.41;65.28
17450;BME280;8842;51.244;7.102;2023-02-14T15:21:43;100830.34;;;13.34;63.94
17450;BME280;8842;51.244;7.102;2023-02-14T15:26:48;100829.67;;;13.38;64.66
17450;BME280;8842;51.244;7.102;2023-02-14T15:31:54;100820.70;;;13.39;64.70
17450;BME280;8842;51.244;7.102;2023-02-14T15:36:59;100820.75;;;13.25;66.37
17450;BME280;8842;51.244;7.102;2023-02-14T15:42:19;100814.17;;;13.30;66.04
17450;BME280;8842;51.244;7.102;2023-02-14T15:47:27;100817.75;;;13.17;66.41
17450;BME280;8842;51.244;7.102;2023-02-14T15:57:44;100820.91;;;13.09;68.00
17450;BME280;8842;51.244;7.102;2023-02-14T16:08:04;100816.84;;;13.04;67.64
17450;BME280;8842;51.244;7.102;2023-02-14T16:18:36;100814.20;;;12.83;68.03
17450;BME280;8842;51.244;7.102;2023-02-14T16:28:53;100815.14;;;12.89;67.37
17450;BME280;8842;51.244;7.102;2023-02-14T16:44:22;100817.50;;;12.86;65.78
17450;BME280;8842;51.244;7.102;2023-02-14T16:54:38;100822.63;;;12.56;68.99
17450;BME280;8842;51.244;7.102;2023-02-14T17:04:53;100828.64;;;12.03;73.94
17450;BME280;8842;51.244;7.102;2023-02-14T17:20:24;100826.66;;;11.47;76.71
17450;BME280;8842;51.244;7.102;2023-02-14T17:30:40;100832.70;;;11.35;76.59
17450;BME280;8842;51.244;7.102;2023-02-14T17:40:58;100841.34;;;11.32;76.70
17450;BME280;8842;51.244;7.102;2023-02-14T17:51:16;100851.31;;;10.82;80.71
17450;BME280;8842;51.244;7.102;2023-02-14T18:01:33;100855.89;;;10.56;84.02
17450;BME280;8842;51.244;7.102;2023-02-14T18:11:49;100860.32;;;10.31;83.64
17450;BME280;8842;51.244;7.102;2023-02-14T18:16:54;100853.89;;;10.02;83.43
17450;BME280;8842;51.244;7.102;2023-02-14T18:21:58;100854.69;;;9.62;88.94
17450;BME280;8842;51.244;7.102;2023-02-14T18:32:14;100845.83;;;9.27;93.10
17450;BME280;8842;51.244;7.102;2023-02-14T18:42:30;100831.67;;;9.28;91.87
17450;BME280;8842;51.244;7.102;2023-02-14T18:52:45;100820.19;;;9.28;90.29
17450;BME280;8842;51.244;7.102;2023-02-14T19:03:01;100820.94;;;9.04;93.39
17450;BME280;8842;51.244;7.102;2023-02-14T19:13:17;100813.20;;;8.91;91.79
17450;BME280;8842;51.244;7.102;2023-02-14T19:23:33;100801.17;;;8.39;95.60
17450;BME280;8842;51.244;7.102;2023-02-14T19:33:49;100787.27;;;8.44;93.97
17450;BME280;8842;51.244;7.102;2023-02-14T19:44:12;100787.84;;;8.32;94.56
17450;BME280;8842;51.244;7.102;2023-02-14T19:54:32;100767.17;;;8.40;92.10
17450;BME280;8842;51.244;7.102;2023-02-14T20:04:48;100756.17;;;8.10;99.69
17450;BME280;8842;51.244;7.102;2023-02-14T20:15:05;100753.97;;;8.01;99.67
17450;BME280;8842;51.244;7.102;2023-02-14T20:20:11;100766.08;;;7.86;99.22
17450;BME280;8842;51.244;7.102;2023-02-14T20:30:28;100753.20;;;7.79;97.67
17450;BME280;8842;51.244;7.102;2023-02-14T20:40:43;100751.66;;;7.65;98.45
17450;BME280;8842;51.244;7.102;2023-02-14T20:51:10;100741.46;;;7.66;99.96
17450;BME280;8842;51.244;7.102;2023-02-14T21:01:26;100735.34;;;7.45;99.96
17450;BME280;8842;51.244;7.102;2023-02-14T21:06:32;100739.89;;;7.42;98.57
17450;BME280;8842;51.244;7.102;2023-02-14T21:16:49;100738.98;;;7.13;100.00
17450;BME280;8842;51.244;7.102;2023-02-14T21:27:05;100735.03;;;6.81;100.00
17450;BME280;8842;51.244;7.102;2023-02-14T21:37:23;100741.05;;;6.75;100.00
17450;BME280;8842;51.244;7.102;2023-02-14T21:52:50;100736.77;;;6.61;100.00
17450;BME280;8842;51.244;7.102;2023-02-14T22:03:06;100725.03;;;6.68;100.00
17450;BME280;8842;51.244;7.102;2023-02-14T22:13:21;100721.60;;;6.56;100.00
17450;BME280;8842;51.244;7.102;2023-02-14T22:23:38;100718.20;;;6.42;100.00
17450;BME280;8842;51.244;7.102;2023-02-14T22:33:55;100711.09;;;6.11;100.00
17450;BME280;8842;51.244;7.102;2023-02-14T22:44:12;100710.91;;;6.16;100.00
17450;BME280;8842;51.244;7.102;2023-02-14T22:54:28;100697.06;;;6.21;100.00
17450;BME280;8842;51.244;7.102;2023-02-14T23:04:44;100698.02;;;6.30;100.00
17450;BME280;8842;51.244;7.102;2023-02-14T23:15:00;100687.56;;;6.17;100.00
17450;BME280;8842;51.244;7.102;2023-02-14T23:25:34;100696.97;;;6.12;100.00
17450;BME280;8842;51.244;7.102;2023-02-14T23:35:50;100689.59;;;5.98;100.00
17450;BME280;8842;51.244;7.102;2023-02-14T23:46:06;100689.70;;;5.95;100.00
17450;BME280;8842;51.244;7.102;2023-02-14T23:56:21;100684.55;;;5.69;100.00
